This is the latest recevied weather packets stored in our database for station/object CA3EVY-3. If no packets are shown the sender has not sent any weather packets the latest 10 day(s).
| Time | Temp. | Humidity | Pressure | Rain* | Wind** | Luminosity | Snow |
|---|---|---|---|---|---|---|---|
| 1788653704 | 16.11° C | 43% | 916.7 hPa | - | - | - | - |
| 1788647404 | 19.44° C | 31% | 916.5 hPa | - | - | - | - |
| 1788640204 | 22.78° C | 31% | 916.2 hPa | - | - | - | - |
| 1788639304 | 22.78° C | 31% | 916.2 hPa | - | - | - | - |
| 1788637504 | 22.78° C | 30% | 916.1 hPa | - | - | - | - |
| 1788636604 | 22.78° C | 30% | 916.1 hPa | - | - | - | - |
| 1788635703 | 22.78° C | 30% | 916.2 hPa | - | - | - | - |
| 1788634803 | 22.22° C | 32% | 916.2 hPa | - | - | - | - |
| 1788633903 | 22.22° C | 32% | 916.4 hPa | - | - | - | - |
| 1788633003 | 21.67° C | 32% | 916.4 hPa | - | - | - | - |
| 1788632104 | 21.67° C | 32% | 916.5 hPa | - | - | - | - |
| 1788631204 | 21.11° C | 35% | 916.7 hPa | - | - | - | - |
| 1788629404 | 20.56° C | 37% | 916.9 hPa | - | - | - | - |
| 1788628503 | 19.44° C | 37% | 917.1 hPa | - | - | - | - |
| 1788627613 | 18.89° C | 38% | 917.3 hPa | - | - | - | - |
| 1788626704 | 17.78° C | 38% | 917.4 hPa | - | - | - | - |
| 1788625803 | 17.22° C | 39% | 917.5 hPa | - | - | - | - |
| 1788624903 | 16.67° C | 39% | 917.7 hPa | - | - | - | - |
| 1788623104 | 15.56° C | 42% | 918 hPa | - | - | - | - |
| 1788619505 | 14.44° C | 42% | 918.4 hPa | - | - | - | - |
| 1788618603 | 13.89° C | 43% | 918.5 hPa | - | - | - | - |
| 1788617703 | 13.89° C | 43% | 918.5 hPa | - | - | - | - |
| 1788616804 | 13.33° C | 39% | 918.5 hPa | - | - | - | - |
| 1788615904 | 13.33° C | 39% | 918.5 hPa | - | - | - | - |
| 1788615005 | 12.78° C | 42% | 918.6 hPa | - | - | - | - |
* Rain since midnight (hover to see other rain measurements)
** Current wind speed in m/s (hover to see current wind gust speed)